createdAt,value
2017-06-30T00:00:39.244Z,0
2017-06-30T00:01:38.923Z,0
2017-06-30T00:02:38.909Z,0
2017-06-30T00:03:38.897Z,0
2017-06-30T00:04:39.193Z,0
2017-06-30T00:05:38.558Z,0
2017-06-30T00:06:38.870Z,0
2017-06-30T00:07:38.906Z,0
2017-06-30T00:08:38.581Z,0
2017-06-30T00:09:38.829Z,0
2017-06-30T00:10:38.871Z,0
2017-06-30T00:11:38.492Z,0
2017-06-30T00:12:38.792Z,0
2017-06-30T00:13:38.483Z,0
2017-06-30T00:14:38.147Z,0
2017-06-30T00:15:38.449Z,0
2017-06-30T00:16:39.065Z,0
2017-06-30T00:17:39.050Z,0
2017-06-30T00:18:39.045Z,0
2017-06-30T00:19:39.043Z,0
2017-06-30T00:20:38.394Z,0
2017-06-30T00:21:38.439Z,0
2017-06-30T00:22:38.683Z,0
2017-06-30T00:23:38.363Z,0
2017-06-30T00:24:38.973Z,0
2017-06-30T00:25:38.655Z,0
2017-06-30T00:26:38.961Z,0
2017-06-30T00:27:38.631Z,0
2017-06-30T00:28:38.629Z,0
2017-06-30T00:29:38.607Z,0
2017-06-30T00:30:38.287Z,0
2017-06-30T00:31:38.274Z,0
2017-06-30T00:32:38.577Z,0
2017-06-30T00:33:38.253Z,0
2017-06-30T00:34:38.551Z,0
2017-06-30T00:35:38.227Z,0
2017-06-30T00:36:38.530Z,0
2017-06-30T00:37:38.214Z,0
2017-06-30T00:38:37.905Z,0
2017-06-30T00:39:38.497Z,0
2017-06-30T00:40:38.175Z,0
2017-06-30T00:41:38.791Z,0
2017-06-30T00:42:38.462Z,0
2017-06-30T00:43:38.765Z,0
2017-06-30T00:44:38.450Z,0
2017-06-30T00:45:38.447Z,0
2017-06-30T00:46:38.729Z,0
2017-06-30T00:47:38.723Z,0
2017-06-30T00:48:38.393Z,0
2017-06-30T00:49:38.077Z,0
2017-06-30T00:50:38.378Z,0
2017-06-30T00:51:38.052Z,0
2017-06-30T00:52:38.358Z,0
2017-06-30T00:53:38.654Z,0
2017-06-30T00:54:38.331Z,0
2017-06-30T00:55:38.638Z,0
2017-06-30T00:56:38.622Z,0
2017-06-30T00:57:37.671Z,0
2017-06-30T00:58:38.289Z,0
2017-06-30T00:59:38.589Z,0
2017-06-30T01:00:38.577Z,0
2017-06-30T01:01:38.563Z,0
2017-06-30T01:02:38.244Z,0
2017-06-30T01:03:37.921Z,0
2017-06-30T01:04:37.595Z,0
2017-06-30T01:05:37.901Z,0
2017-06-30T01:06:37.906Z,0
2017-06-30T01:07:37.872Z,0
2017-06-30T01:08:38.489Z,0
2017-06-30T01:09:37.853Z,0
2017-06-30T01:10:38.203Z,0
2017-06-30T01:11:38.142Z,0
2017-06-30T01:12:38.139Z,0
2017-06-30T01:13:37.811Z,0
2017-06-30T01:14:38.108Z,0
2017-06-30T01:15:38.135Z,0
2017-06-30T01:16:38.401Z,0
2017-06-30T01:17:38.419Z,0
2017-06-30T01:18:38.063Z,0
2017-06-30T01:19:38.362Z,0
2017-06-30T01:20:37.416Z,0
2017-06-30T01:21:37.716Z,0
2017-06-30T01:22:38.024Z,0
2017-06-30T01:23:38.316Z,0
2017-06-30T01:24:38.308Z,0
2017-06-30T01:25:37.676Z,0
2017-06-30T01:26:37.669Z,0
2017-06-30T01:27:37.965Z,0
2017-06-30T01:28:38.266Z,0
2017-06-30T01:29:38.254Z,0
2017-06-30T01:30:37.614Z,0
2017-06-30T01:31:38.284Z,0
2017-06-30T01:32:37.919Z,0
2017-06-30T01:33:38.213Z,0
2017-06-30T01:34:37.568Z,0
2017-06-30T01:35:37.873Z,0
2017-06-30T01:36:37.579Z,0
2017-06-30T01:37:37.855Z,0
2017-06-30T01:38:37.848Z,0
2017-06-30T01:39:37.832Z,0
2017-06-30T01:40:37.505Z,0
2017-06-30T01:41:37.805Z,0
2017-06-30T01:42:37.482Z,0
2017-06-30T01:43:37.158Z,0
2017-06-30T01:44:37.779Z,0
2017-06-30T01:45:38.681Z,0
2017-06-30T01:46:38.059Z,0
2017-06-30T01:47:37.429Z,0
2017-06-30T01:48:37.415Z,0
2017-06-30T01:49:37.719Z,0
2017-06-30T01:50:38.024Z,0
2017-06-30T01:51:37.385Z,0
2017-06-30T01:52:37.679Z,0
2017-06-30T01:53:37.671Z,0
2017-06-30T01:54:37.659Z,0
2017-06-30T01:55:37.958Z,0
2017-06-30T01:56:37.998Z,0
2017-06-30T01:57:37.624Z,0
2017-06-30T01:58:37.301Z,0
2017-06-30T01:59:36.976Z,0
2017-06-30T02:00:37.327Z,0
2017-06-30T02:01:37.581Z,0
2017-06-30T02:02:37.569Z,0
2017-06-30T02:03:37.866Z,0
2017-06-30T02:04:37.234Z,0
2017-06-30T02:05:37.539Z,0
2017-06-30T02:06:37.522Z,0
2017-06-30T02:07:37.514Z,0
2017-06-30T02:08:37.502Z,0
2017-06-30T02:09:37.540Z,0
2017-06-30T02:10:37.479Z,0
2017-06-30T02:11:37.783Z,0
2017-06-30T02:12:37.452Z,0
2017-06-30T02:13:37.134Z,0
2017-06-30T02:14:37.431Z,0
2017-06-30T02:15:37.105Z,0
2017-06-30T02:16:37.410Z,0
2017-06-30T02:17:37.091Z,0
2017-06-30T02:18:37.385Z,0
2017-06-30T02:19:37.374Z,0
2017-06-30T02:20:37.679Z,0
2017-06-30T02:21:37.670Z,0
2017-06-30T02:22:37.344Z,0
2017-06-30T02:23:37.340Z,0
2017-06-30T02:24:37.630Z,0
2017-06-30T02:25:36.991Z,0
2017-06-30T02:26:37.602Z,0
2017-06-30T02:27:36.975Z,0
2017-06-30T02:28:37.274Z,0
2017-06-30T02:29:36.947Z,0
2017-06-30T02:30:37.250Z,0
2017-06-30T02:31:37.239Z,0
2017-06-30T02:32:37.235Z,0
2017-06-30T02:33:37.576Z,0
2017-06-30T02:34:36.578Z,0
2017-06-30T02:35:37.192Z,0
2017-06-30T02:36:37.231Z,0
2017-06-30T02:37:36.863Z,0
2017-06-30T02:38:37.473Z,0
2017-06-30T02:39:37.145Z,0
2017-06-30T02:40:36.824Z,0
2017-06-30T02:41:37.436Z,0
2017-06-30T02:42:37.121Z,4
2017-06-30T02:43:37.100Z,4
2017-06-30T02:44:36.777Z,4
2017-06-30T02:45:36.768Z,4
2017-06-30T02:46:37.071Z,0
2017-06-30T02:47:37.372Z,4
2017-06-30T02:48:36.418Z,4
2017-06-30T02:49:37.036Z,4
2017-06-30T02:50:37.338Z,4
2017-06-30T02:51:37.320Z,4
2017-06-30T02:52:37.002Z,4
2017-06-30T02:53:36.989Z,8
2017-06-30T02:54:37.284Z,4
2017-06-30T02:55:36.964Z,4
2017-06-30T02:56:36.640Z,8
2017-06-30T02:57:36.376Z,8
2017-06-30T02:58:37.244Z,8
2017-06-30T02:59:36.915Z,12
2017-06-30T03:00:36.907Z,12
2017-06-30T03:01:36.892Z,12
2017-06-30T03:02:37.197Z,16
2017-06-30T03:03:36.562Z,20
2017-06-30T03:04:36.234Z,20
2017-06-30T03:05:37.165Z,20
2017-06-30T03:06:37.151Z,20
2017-06-30T03:07:36.831Z,20
2017-06-30T03:08:36.501Z,24
2017-06-30T03:09:37.114Z,20
2017-06-30T03:10:36.796Z,20
2017-06-30T03:11:37.098Z,24
2017-06-30T03:12:36.153Z,24
2017-06-30T03:13:37.075Z,28
2017-06-30T03:14:36.743Z,32
2017-06-30T03:15:36.422Z,32
2017-06-30T03:16:36.724Z,28
2017-06-30T03:17:36.399Z,32
2017-06-30T03:18:36.384Z,32
2017-06-30T03:19:37.000Z,36
2017-06-30T03:20:36.365Z,44
2017-06-30T03:21:36.356Z,56
2017-06-30T03:22:36.342Z,72
2017-06-30T03:23:36.346Z,96
2017-06-30T03:24:36.320Z,120
2017-06-30T03:25:36.305Z,136
2017-06-30T03:26:36.605Z,152
2017-06-30T03:27:36.593Z,168
2017-06-30T03:28:36.269Z,180
2017-06-30T03:29:36.895Z,192
2017-06-30T03:30:36.876Z,208
2017-06-30T03:31:36.286Z,220
2017-06-30T03:32:36.232Z,236
2017-06-30T03:33:36.541Z,252
2017-06-30T03:34:36.830Z,272
2017-06-30T03:35:36.508Z,288
2017-06-30T03:36:36.832Z,304
2017-06-30T03:37:36.490Z,324
2017-06-30T03:38:36.156Z,344
2017-06-30T03:39:36.773Z,360
2017-06-30T03:40:36.760Z,380
2017-06-30T03:41:36.124Z,392
2017-06-30T03:42:36.428Z,400
2017-06-30T03:43:36.729Z,408
2017-06-30T03:44:36.715Z,424
2017-06-30T03:45:36.717Z,444
2017-06-30T03:46:36.577Z,464
2017-06-30T03:47:36.052Z,484
2017-06-30T03:48:36.722Z,512
2017-06-30T03:49:36.658Z,540
2017-06-30T03:50:36.330Z,572
2017-06-30T03:51:36.633Z,604
2017-06-30T03:52:36.316Z,632
2017-06-30T03:53:35.987Z,668
2017-06-30T03:54:36.290Z,700
2017-06-30T03:55:35.653Z,736
2017-06-30T03:56:36.265Z,772
2017-06-30T03:57:36.564Z,808
2017-06-30T03:58:36.265Z,836
2017-06-30T03:59:36.234Z,852
2017-06-30T04:00:35.913Z,868
2017-06-30T04:01:36.204Z,880
2017-06-30T04:02:35.885Z,880
2017-06-30T04:03:36.236Z,880
2017-06-30T04:04:36.483Z,888
2017-06-30T04:05:35.849Z,896
2017-06-30T04:06:36.147Z,900
2017-06-30T04:07:36.143Z,904
2017-06-30T04:08:36.437Z,920
2017-06-30T04:09:36.117Z,940
2017-06-30T04:10:36.102Z,960
2017-06-30T04:11:35.778Z,976
2017-06-30T04:12:36.086Z,984
2017-06-30T04:13:36.385Z,980
2017-06-30T04:14:35.751Z,980
2017-06-30T04:15:36.044Z,980
2017-06-30T04:16:35.724Z,988
2017-06-30T04:17:36.018Z,1000
2017-06-30T04:18:36.321Z,1016
2017-06-30T04:19:35.374Z,1028
2017-06-30T04:20:35.674Z,1052
2017-06-30T04:21:35.973Z,1080
2017-06-30T04:22:36.277Z,1096
2017-06-30T04:23:35.638Z,1128
2017-06-30T04:24:36.296Z,1160
2017-06-30T04:25:35.617Z,1208
2017-06-30T04:26:35.919Z,1244
2017-06-30T04:27:35.275Z,1276
2017-06-30T04:28:35.583Z,1320
2017-06-30T04:29:35.882Z,1368
2017-06-30T04:30:35.875Z,1400
2017-06-30T04:31:36.172Z,1424
2017-06-30T04:32:35.256Z,1456
2017-06-30T04:33:35.838Z,1468
2017-06-30T04:34:35.878Z,1500
2017-06-30T04:35:35.812Z,1524
2017-06-30T04:36:35.799Z,1548
2017-06-30T04:37:35.477Z,1580
2017-06-30T04:38:35.828Z,1608
2017-06-30T04:39:35.764Z,1636
2017-06-30T04:40:35.803Z,1672
2017-06-30T04:41:36.061Z,1720
2017-06-30T04:42:35.736Z,1768
2017-06-30T04:43:36.034Z,1828
2017-06-30T04:44:35.452Z,1892
2017-06-30T04:45:35.701Z,1956
2017-06-30T04:46:35.376Z,2020
2017-06-30T04:47:35.361Z,2076
2017-06-30T04:48:35.359Z,2112
2017-06-30T04:49:35.660Z,2140
2017-06-30T04:50:35.960Z,2160
2017-06-30T04:51:35.626Z,2152
2017-06-30T04:52:35.936Z,2156
2017-06-30T04:53:34.983Z,2168
2017-06-30T04:54:35.286Z,2208
2017-06-30T04:55:35.317Z,2260
2017-06-30T04:56:35.890Z,2324
2017-06-30T04:57:35.562Z,2380
2017-06-30T04:58:35.235Z,2448
2017-06-30T04:59:34.922Z,2512
2017-06-30T05:00:35.531Z,2572
2017-06-30T05:01:35.239Z,2632
2017-06-30T05:02:35.505Z,2672
2017-06-30T05:03:35.182Z,2692
2017-06-30T05:04:35.794Z,2688
2017-06-30T05:05:35.156Z,2680
2017-06-30T05:06:35.462Z,2636
2017-06-30T05:07:35.450Z,2584
2017-06-30T05:08:35.439Z,2548
2017-06-30T05:09:35.112Z,2520
2017-06-30T05:10:35.106Z,2520
2017-06-30T05:11:35.403Z,2560
2017-06-30T05:12:35.409Z,2652
2017-06-30T05:13:34.756Z,2776
2017-06-30T05:14:35.382Z,2900
2017-06-30T05:15:35.047Z,2984
2017-06-30T05:16:35.353Z,3100
2017-06-30T05:17:35.073Z,3248
2017-06-30T05:18:35.328Z,3376
2017-06-30T05:19:35.628Z,3528
2017-06-30T05:20:35.617Z,3636
2017-06-30T05:21:35.297Z,3644
2017-06-30T05:22:35.599Z,3644
2017-06-30T05:23:35.659Z,3656
2017-06-30T05:24:34.952Z,3672
2017-06-30T05:25:35.252Z,3684
2017-06-30T05:26:34.926Z,3684
2017-06-30T05:27:35.548Z,3720
2017-06-30T05:28:35.222Z,3708
2017-06-30T05:29:35.208Z,3716
2017-06-30T05:30:35.197Z,3720
2017-06-30T05:31:35.189Z,3732
2017-06-30T05:32:35.174Z,3696
2017-06-30T05:33:35.214Z,3644
2017-06-30T05:34:34.838Z,3556
2017-06-30T05:35:35.142Z,3440
2017-06-30T05:36:34.823Z,3412
2017-06-30T05:37:35.127Z,3432
2017-06-30T05:38:35.109Z,3444
2017-06-30T05:39:35.105Z,3464
2017-06-30T05:40:35.418Z,3448
2017-06-30T05:41:34.772Z,3464
2017-06-30T05:42:35.438Z,3464
2017-06-30T05:43:35.070Z,3444
2017-06-30T05:44:34.728Z,3484
2017-06-30T05:45:35.035Z,3568
2017-06-30T05:46:35.536Z,3672
2017-06-30T05:47:34.696Z,3696
2017-06-30T05:48:35.026Z,3592
2017-06-30T05:49:34.995Z,3380
2017-06-30T05:50:35.297Z,3092
2017-06-30T05:51:34.975Z,2792
2017-06-30T05:52:34.984Z,2568
2017-06-30T05:53:35.264Z,2444
2017-06-30T05:54:34.944Z,2320
2017-06-30T05:55:35.243Z,2168
2017-06-30T05:56:34.630Z,1980
2017-06-30T05:57:34.913Z,1808
2017-06-30T05:58:34.936Z,1660
2017-06-30T05:59:34.580Z,1520
2017-06-30T06:00:34.880Z,1376
2017-06-30T06:01:35.183Z,1280
2017-06-30T06:02:35.171Z,1268
2017-06-30T06:03:34.851Z,1292
2017-06-30T06:04:34.208Z,1324
2017-06-30T06:05:34.507Z,1328
2017-06-30T06:06:35.120Z,1340
2017-06-30T06:07:34.812Z,1380
2017-06-30T06:08:34.478Z,1468
2017-06-30T06:09:34.778Z,1552
2017-06-30T06:10:34.772Z,1652
2017-06-30T06:11:34.774Z,1732
2017-06-30T06:12:34.451Z,1788
2017-06-30T06:13:34.420Z,1836
2017-06-30T06:14:35.049Z,1904
2017-06-30T06:15:34.713Z,1960
2017-06-30T06:16:35.017Z,1980
2017-06-30T06:17:34.378Z,1936
2017-06-30T06:18:34.400Z,1860
2017-06-30T06:19:34.432Z,1752
2017-06-30T06:20:34.663Z,1600
2017-06-30T06:21:34.659Z,1440
2017-06-30T06:22:34.636Z,1388
2017-06-30T06:23:34.938Z,1440
2017-06-30T06:24:34.658Z,1584
2017-06-30T06:25:34.598Z,1684
2017-06-30T06:26:34.322Z,1748
2017-06-30T06:27:34.582Z,1824
2017-06-30T06:28:34.565Z,1980
2017-06-30T06:29:34.559Z,2216
2017-06-30T06:30:34.234Z,2440
2017-06-30T06:31:34.846Z,2508
2017-06-30T06:32:34.877Z,2380
2017-06-30T06:33:34.827Z,2288
2017-06-30T06:34:34.809Z,2248
2017-06-30T06:35:34.194Z,2364
2017-06-30T06:36:34.196Z,2472
2017-06-30T06:37:33.841Z,2616
2017-06-30T06:38:34.144Z,2908
2017-06-30T06:39:34.134Z,3260
2017-06-30T06:40:34.433Z,3556
2017-06-30T06:41:34.431Z,3684
2017-06-30T06:42:34.416Z,3712
2017-06-30T06:43:34.117Z,3608
2017-06-30T06:44:34.386Z,3480
2017-06-30T06:45:34.380Z,3216
2017-06-30T06:46:34.049Z,3068
2017-06-30T06:47:34.044Z,3088
2017-06-30T06:48:34.653Z,3172
2017-06-30T06:49:34.331Z,3324
2017-06-30T06:50:34.326Z,3656
2017-06-30T06:51:34.307Z,3956
2017-06-30T06:52:34.300Z,4208
2017-06-30T06:53:33.972Z,4376
2017-06-30T06:54:34.272Z,4520
2017-06-30T06:55:33.630Z,4560
2017-06-30T06:56:34.249Z,4524
2017-06-30T06:57:34.569Z,4460
2017-06-30T06:58:33.603Z,4476
2017-06-30T06:59:34.217Z,4572
2017-06-30T07:00:34.517Z,4576
2017-06-30T07:01:34.196Z,4528
2017-06-30T07:02:33.875Z,4536
2017-06-30T07:03:34.171Z,4604
2017-06-30T07:04:34.158Z,4844
2017-06-30T07:05:33.835Z,5272
2017-06-30T07:06:34.142Z,5772
2017-06-30T07:07:34.131Z,6332
2017-06-30T07:08:34.435Z,6656
2017-06-30T07:09:33.801Z,6748
2017-06-30T07:10:34.410Z,6764
2017-06-30T07:11:34.089Z,6784
2017-06-30T07:12:33.762Z,6712
2017-06-30T07:13:34.066Z,6612
2017-06-30T07:14:34.053Z,6412
2017-06-30T07:15:33.733Z,6056
2017-06-30T07:16:34.037Z,5608
2017-06-30T07:17:33.707Z,5352
2017-06-30T07:18:34.010Z,5652
2017-06-30T07:19:33.375Z,6228
2017-06-30T07:20:33.987Z,6840
2017-06-30T07:21:33.982Z,7328
2017-06-30T07:22:33.986Z,8508
2017-06-30T07:23:33.958Z,7896
2017-06-30T07:24:33.953Z,8152
2017-06-30T07:25:33.946Z,8348
2017-06-30T07:26:33.616Z,8620
2017-06-30T07:27:33.606Z,8840
2017-06-30T07:28:33.910Z,9104
2017-06-30T07:29:33.903Z,9452
2017-06-30T07:30:33.576Z,9812
2017-06-30T07:31:33.878Z,10180
2017-06-30T07:32:33.871Z,10412
2017-06-30T07:33:33.544Z,10504
2017-06-30T07:34:34.160Z,10324
2017-06-30T07:35:33.835Z,9844
2017-06-30T07:36:33.202Z,9428
2017-06-30T07:37:33.818Z,9176
2017-06-30T07:38:33.810Z,9052
2017-06-30T07:39:33.491Z,11048
2017-06-30T07:40:33.791Z,9392
2017-06-30T07:41:33.157Z,10408
2017-06-30T07:42:34.133Z,8892
2017-06-30T07:43:33.758Z,8760
2017-06-30T07:44:33.440Z,9156
2017-06-30T07:45:33.745Z,9624
2017-06-30T07:46:33.635Z,8820
2017-06-30T07:47:33.727Z,8712
2017-06-30T07:48:33.718Z,9232
2017-06-30T07:49:33.698Z,8372
2017-06-30T07:50:33.690Z,10748
2017-06-30T07:51:33.708Z,8392
2017-06-30T07:52:33.361Z,7828
2017-06-30T07:53:33.988Z,7372
2017-06-30T07:54:33.659Z,7772
2017-06-30T07:55:33.664Z,8604
2017-06-30T07:56:33.954Z,9292
2017-06-30T07:57:33.647Z,10064
2017-06-30T07:58:33.938Z,10236
2017-06-30T07:59:33.615Z,10052
2017-06-30T08:00:33.608Z,9056
2017-06-30T08:01:33.917Z,8220
2017-06-30T08:02:33.584Z,9020
2017-06-30T08:03:33.903Z,10540
2017-06-30T08:04:33.255Z,10948
2017-06-30T08:05:33.554Z,10784
2017-06-30T08:06:33.566Z,11632
2017-06-30T08:07:33.864Z,12892
2017-06-30T08:08:33.583Z,11736
2017-06-30T08:09:33.832Z,11696
2017-06-30T08:10:32.886Z,13784
2017-06-30T08:11:33.825Z,20960
2017-06-30T08:12:32.883Z,22368
2017-06-30T08:13:33.188Z,11092
2017-06-30T08:14:33.484Z,10860
2017-06-30T08:15:33.151Z,12624
2017-06-30T08:16:33.156Z,11476
2017-06-30T08:17:33.773Z,9920
2017-06-30T08:18:33.455Z,9304
2017-06-30T08:19:33.434Z,9984
2017-06-30T08:20:33.433Z,9772
2017-06-30T08:21:33.417Z,9500
2017-06-30T08:22:33.416Z,9560
2017-06-30T08:23:33.403Z,8100
2017-06-30T08:24:33.087Z,7132
2017-06-30T08:25:33.383Z,7740
2017-06-30T08:26:33.058Z,9016
2017-06-30T08:27:33.679Z,8896
2017-06-30T08:28:33.354Z,7816
2017-06-30T08:29:33.032Z,6628
2017-06-30T08:30:33.028Z,4944
2017-06-30T08:31:33.338Z,4988
2017-06-30T08:32:33.016Z,5872
2017-06-30T08:33:33.638Z,7608
2017-06-30T08:34:33.308Z,8916
2017-06-30T08:35:33.298Z,14000
2017-06-30T08:36:32.982Z,9244
2017-06-30T08:37:32.987Z,10372
2017-06-30T08:38:32.973Z,13692
2017-06-30T08:39:32.647Z,23744
2017-06-30T08:40:33.258Z,22080
2017-06-30T08:41:33.255Z,11852
2017-06-30T08:42:33.250Z,11652
2017-06-30T08:43:33.231Z,11572
2017-06-30T08:44:33.537Z,12696
2017-06-30T08:45:33.230Z,19104
2017-06-30T08:46:33.205Z,21024
2017-06-30T08:47:33.510Z,16640
2017-06-30T08:48:33.504Z,20704
2017-06-30T08:49:32.867Z,17824
2017-06-30T08:50:32.904Z,13268
2017-06-30T08:51:32.856Z,12348
2017-06-30T08:52:33.161Z,10024
2017-06-30T08:53:32.843Z,9376
2017-06-30T08:54:33.150Z,9912
2017-06-30T08:55:32.831Z,8148
2017-06-30T08:56:32.817Z,8796
2017-06-30T08:57:32.813Z,9600
2017-06-30T08:58:33.121Z,10044
2017-06-30T08:59:32.794Z,9492
2017-06-30T09:00:33.423Z,10552
2017-06-30T09:01:33.402Z,12052
2017-06-30T09:02:32.771Z,13208
2017-06-30T09:03:33.388Z,13216
2017-06-30T09:04:33.075Z,12944
2017-06-30T09:05:33.081Z,11960
2017-06-30T09:06:32.749Z,10936
2017-06-30T09:07:33.045Z,9452
2017-06-30T09:08:33.036Z,9580
2017-06-30T09:09:33.033Z,10952
2017-06-30T09:10:32.708Z,10424
2017-06-30T09:11:32.699Z,9744
2017-06-30T09:12:32.687Z,9668
2017-06-30T09:13:33.001Z,9956
2017-06-30T09:14:32.676Z,19008
2017-06-30T09:15:33.290Z,7340
2017-06-30T09:16:32.974Z,8012
2017-06-30T09:17:33.276Z,9284
2017-06-30T09:18:32.365Z,11192
2017-06-30T09:19:33.000Z,9608
2017-06-30T09:20:32.938Z,8988
2017-06-30T09:21:32.960Z,8828
2017-06-30T09:22:32.616Z,9180
2017-06-30T09:23:33.287Z,8780
2017-06-30T09:24:32.917Z,9320
2017-06-30T09:25:33.219Z,10072
2017-06-30T09:26:33.208Z,10584
2017-06-30T09:27:32.576Z,9468
2017-06-30T09:28:32.874Z,10064
2017-06-30T09:29:32.866Z,10932
2017-06-30T09:30:33.176Z,12932
2017-06-30T09:31:32.539Z,16056
2017-06-30T09:32:33.155Z,12908
2017-06-30T09:33:32.835Z,12204
2017-06-30T09:34:32.833Z,14336
2017-06-30T09:35:32.508Z,10904
2017-06-30T09:36:32.499Z,8328
2017-06-30T09:37:33.130Z,8332
2017-06-30T09:38:32.795Z,10224
2017-06-30T09:39:32.814Z,12980
2017-06-30T09:40:32.526Z,25600
2017-06-30T09:41:32.775Z,17888
2017-06-30T09:42:32.766Z,22368
2017-06-30T09:43:32.758Z,23072
2017-06-30T09:44:33.071Z,21408
2017-06-30T09:45:32.431Z,18720
2017-06-30T09:46:33.273Z,28064
2017-06-30T09:47:32.733Z,26528
2017-06-30T09:48:32.729Z,24448
2017-06-30T09:49:32.405Z,19424
2017-06-30T09:50:32.706Z,27296
2017-06-30T09:51:32.702Z,22048
2017-06-30T09:52:32.709Z,14712
2017-06-30T09:53:33.012Z,12288
2017-06-30T09:54:33.002Z,12648
2017-06-30T09:55:32.686Z,14560
2017-06-30T09:56:32.664Z,17184
2017-06-30T09:57:32.660Z,17536
2017-06-30T09:58:32.657Z,26272
2017-06-30T09:59:32.647Z,20896
2017-06-30T10:00:32.644Z,19872
2017-06-30T10:01:32.652Z,28928
2017-06-30T10:02:32.318Z,31136
2017-06-30T10:03:32.635Z,32096
2017-06-30T10:04:32.304Z,14032
2017-06-30T10:05:32.294Z,17824
2017-06-30T10:06:32.616Z,20128
2017-06-30T10:07:32.287Z,19552
2017-06-30T10:08:32.904Z,33280
2017-06-30T10:09:32.272Z,14332
2017-06-30T10:10:32.601Z,14812
2017-06-30T10:11:32.264Z,13580
2017-06-30T10:12:32.259Z,11600
2017-06-30T10:13:32.873Z,13828
2017-06-30T10:14:32.244Z,18720
2017-06-30T10:15:32.871Z,16960
2017-06-30T10:16:32.859Z,17408
2017-06-30T10:17:32.545Z,48864
2017-06-30T10:18:32.219Z,38752
2017-06-30T10:19:32.593Z,22752
2017-06-30T10:20:32.521Z,20448
2017-06-30T10:21:32.829Z,17504
2017-06-30T10:22:32.716Z,17728
2017-06-30T10:23:32.814Z,18624
2017-06-30T10:24:32.503Z,19104
2017-06-30T10:25:32.494Z,18240
2017-06-30T10:26:32.498Z,20064
2017-06-30T10:27:32.812Z,55072
2017-06-30T10:28:32.182Z,35648
2017-06-30T10:29:32.487Z,67680
2017-06-30T10:30:32.783Z,64704
2017-06-30T10:31:32.488Z,63808
2017-06-30T10:32:32.457Z,53376
2017-06-30T10:33:32.475Z,22560
2017-06-30T10:34:32.135Z,62240
2017-06-30T10:35:32.757Z,66176
2017-06-30T10:36:32.439Z,21120
2017-06-30T10:37:31.811Z,75424
2017-06-30T10:38:32.745Z,75136
2017-06-30T10:39:32.752Z,13672
2017-06-30T10:40:32.428Z,23040
2017-06-30T10:41:31.798Z,59840
2017-06-30T10:42:32.728Z,56000
2017-06-30T10:43:32.426Z,64160
2017-06-30T10:44:32.420Z,54368
2017-06-30T10:45:32.416Z,44832
2017-06-30T10:46:32.415Z,52416
2017-06-30T10:47:32.095Z,53760
2017-06-30T10:48:32.744Z,51936
2017-06-30T10:49:32.097Z,54144
2017-06-30T10:50:32.400Z,54208
2017-06-30T10:51:32.403Z,58656
2017-06-30T10:52:32.737Z,64640
2017-06-30T10:53:32.088Z,60256
2017-06-30T10:54:32.404Z,70240
2017-06-30T10:55:32.722Z,69856
2017-06-30T10:56:32.391Z,69696
2017-06-30T10:57:32.074Z,69824
2017-06-30T10:58:31.767Z,69728
2017-06-30T10:59:32.391Z,18144
2017-06-30T11:00:32.719Z,74176
2017-06-30T11:01:32.074Z,23520
2017-06-30T11:02:32.724Z,71520
2017-06-30T11:03:32.703Z,48704
2017-06-30T11:04:32.380Z,10576
2017-06-30T11:05:32.703Z,9500
2017-06-30T11:06:32.374Z,10652
2017-06-30T11:07:32.379Z,15236
2017-06-30T11:08:32.369Z,35040
2017-06-30T11:09:32.373Z,83872
2017-06-30T11:10:32.680Z,79872
2017-06-30T11:11:32.370Z,59424
2017-06-30T11:12:32.367Z,78720
2017-06-30T11:13:32.368Z,51968
2017-06-30T11:14:31.733Z,99936
2017-06-30T11:15:32.410Z,37824
2017-06-30T11:16:32.366Z,44736
2017-06-30T11:17:32.373Z,21376
2017-06-30T11:18:31.730Z,28416
2017-06-30T11:19:32.046Z,52512
2017-06-30T11:20:32.355Z,58976
2017-06-30T11:21:32.354Z,36544
2017-06-30T11:22:32.664Z,26560
2017-06-30T11:23:32.044Z,34240
2017-06-30T11:24:32.349Z,21280
2017-06-30T11:25:32.345Z,13596
2017-06-30T11:26:32.350Z,12628
2017-06-30T11:27:32.681Z,13464
2017-06-30T11:28:32.029Z,13148
2017-06-30T11:29:32.342Z,11524
2017-06-30T11:30:32.712Z,10484
2017-06-30T11:31:32.020Z,10372
2017-06-30T11:32:32.331Z,10860
2017-06-30T11:33:32.328Z,12088
2017-06-30T11:34:32.022Z,13844
2017-06-30T11:35:31.695Z,14784
2017-06-30T11:36:32.319Z,21216
2017-06-30T11:37:32.312Z,19520
2017-06-30T11:38:32.321Z,23872
2017-06-30T11:39:31.994Z,29280
2017-06-30T11:40:32.301Z,25824
2017-06-30T11:41:32.298Z,21952
2017-06-30T11:42:32.601Z,22400
2017-06-30T11:43:32.295Z,20384
2017-06-30T11:44:31.659Z,22368
2017-06-30T11:45:31.650Z,33152
2017-06-30T11:46:32.160Z,19584
2017-06-30T11:47:32.262Z,19296
2017-06-30T11:48:32.586Z,16120
2017-06-30T11:49:32.291Z,14956
2017-06-30T11:50:32.249Z,13704
2017-06-30T11:51:32.244Z,11860
2017-06-30T11:52:31.623Z,11460
2017-06-30T11:53:32.577Z,11168
2017-06-30T11:54:31.616Z,10688
2017-06-30T11:55:32.546Z,10544
2017-06-30T11:56:32.225Z,10788
2017-06-30T11:57:31.593Z,11256
2017-06-30T11:58:31.633Z,11872
2017-06-30T11:59:31.902Z,12864
2017-06-30T12:00:31.896Z,14296
2017-06-30T12:01:32.510Z,15604
2017-06-30T12:02:32.207Z,17088
2017-06-30T12:03:32.507Z,18848
2017-06-30T12:04:32.513Z,20448
2017-06-30T12:05:31.866Z,24416
2017-06-30T12:06:31.854Z,28992
2017-06-30T12:07:32.169Z,49664
2017-06-30T12:08:31.854Z,33344
2017-06-30T12:09:31.849Z,15900
2017-06-30T12:10:32.152Z,11432
2017-06-30T12:11:32.150Z,9072
2017-06-30T12:12:32.145Z,7568
2017-06-30T12:13:32.458Z,6300
2017-06-30T12:14:31.814Z,5376
2017-06-30T12:15:32.133Z,4660
2017-06-30T12:16:32.131Z,4388
2017-06-30T12:17:31.801Z,4328
2017-06-30T12:18:32.474Z,4432
2017-06-30T12:19:32.102Z,4828
2017-06-30T12:20:32.096Z,5432
2017-06-30T12:21:32.100Z,6216
2017-06-30T12:22:31.777Z,7180
2017-06-30T12:23:31.456Z,8200
2017-06-30T12:24:32.120Z,9336
2017-06-30T12:25:32.068Z,10368
2017-06-30T12:26:31.753Z,12804
2017-06-30T12:27:31.746Z,12268
2017-06-30T12:28:32.366Z,12692
2017-06-30T12:29:31.733Z,13752
2017-06-30T12:30:31.732Z,13716
2017-06-30T12:31:32.341Z,11028
2017-06-30T12:32:32.336Z,9484
2017-06-30T12:33:32.337Z,8228
2017-06-30T12:34:32.016Z,6964
2017-06-30T12:35:32.024Z,6044
2017-06-30T12:36:31.995Z,5604
2017-06-30T12:37:31.678Z,5236
2017-06-30T12:38:31.984Z,4804
2017-06-30T12:39:31.980Z,4176
2017-06-30T12:40:32.028Z,3616
2017-06-30T12:41:31.983Z,3208
2017-06-30T12:42:31.640Z,2960
2017-06-30T12:43:31.951Z,2796
2017-06-30T12:44:31.631Z,2756
2017-06-30T12:45:31.934Z,2852
2017-06-30T12:46:31.614Z,3068
2017-06-30T12:47:31.608Z,3396
2017-06-30T12:48:31.914Z,3824
2017-06-30T12:49:31.910Z,4380
2017-06-30T12:50:31.588Z,5060
2017-06-30T12:51:31.898Z,5984
2017-06-30T12:52:32.200Z,7064
2017-06-30T12:53:31.876Z,8380
2017-06-30T12:54:31.581Z,10048
2017-06-30T12:55:31.238Z,11660
2017-06-30T12:56:31.546Z,12644
2017-06-30T12:57:31.848Z,14176
2017-06-30T12:58:32.181Z,17056
2017-06-30T12:59:31.839Z,23104
2017-06-30T13:00:31.506Z,72576
2017-06-30T13:01:31.505Z,27808
2017-06-30T13:02:31.810Z,70208
2017-06-30T13:03:31.512Z,31488
2017-06-30T13:04:31.521Z,30560
2017-06-30T13:05:32.119Z,61248
2017-06-30T13:06:31.790Z,86848
2017-06-30T13:07:31.781Z,89664
2017-06-30T13:08:32.086Z,53184
2017-06-30T13:09:31.175Z,39776
2017-06-30T13:10:32.080Z,34528
2017-06-30T13:11:31.441Z,34912
2017-06-30T13:12:31.131Z,41312
2017-06-30T13:13:31.759Z,26720
2017-06-30T13:14:31.742Z,35040
2017-06-30T13:15:31.743Z,19808
2017-06-30T13:16:31.741Z,54336
2017-06-30T13:17:31.735Z,30784
2017-06-30T13:18:31.730Z,21344
2017-06-30T13:19:31.727Z,28000
2017-06-30T13:20:31.723Z,20672
2017-06-30T13:21:31.408Z,20032
2017-06-30T13:22:31.722Z,17696
2017-06-30T13:23:32.072Z,15464
2017-06-30T13:24:32.030Z,13924
2017-06-30T13:25:31.704Z,13220
2017-06-30T13:26:31.697Z,13024
2017-06-30T13:27:31.694Z,13412
2017-06-30T13:28:31.999Z,14996
2017-06-30T13:29:31.721Z,20608
2017-06-30T13:30:31.682Z,18880
2017-06-30T13:31:31.719Z,33312